sensor_id;sensor_type;location;lat;lon;timestamp;P1;durP1;ratioP1;P2;durP2;ratioP2
66421;SDS011;53228;51.380;0.098;2022-12-07T00:00:11;17.13;;;7.43;;
66421;SDS011;53228;51.380;0.098;2022-12-07T00:02:39;18.75;;;7.57;;
66421;SDS011;53228;51.380;0.098;2022-12-07T00:05:13;14.57;;;6.57;;
66421;SDS011;53228;51.380;0.098;2022-12-07T00:08:06;18.52;;;7.20;;
66421;SDS011;53228;51.380;0.098;2022-12-07T00:10:37;16.38;;;6.80;;
66421;SDS011;53228;51.380;0.098;2022-12-07T00:14:06;13.65;;;6.25;;
66421;SDS011;53228;51.380;0.098;2022-12-07T00:22:19;16.13;;;6.20;;
66421;SDS011;53228;51.380;0.098;2022-12-07T00:24:47;14.93;;;6.20;;
66421;SDS011;53228;51.380;0.098;2022-12-07T00:27:21;14.20;;;6.35;;
66421;SDS011;53228;51.380;0.098;2022-12-07T00:29:49;13.43;;;6.65;;
66421;SDS011;53228;51.380;0.098;2022-12-07T00:32:17;24.70;;;6.85;;
66421;SDS011;53228;51.380;0.098;2022-12-07T00:34:46;14.05;;;5.90;;
66421;SDS011;53228;51.380;0.098;2022-12-07T00:37:16;13.82;;;6.60;;
66421;SDS011;53228;51.380;0.098;2022-12-07T00:39:45;23.63;;;7.80;;
66421;SDS011;53228;51.380;0.098;2022-12-07T00:42:13;17.15;;;6.20;;
66421;SDS011;53228;51.380;0.098;2022-12-07T00:44:41;17.52;;;7.45;;
66421;SDS011;53228;51.380;0.098;2022-12-07T00:47:09;22.27;;;6.88;;
66421;SDS011;53228;51.380;0.098;2022-12-07T00:49:37;23.60;;;7.78;;
66421;SDS011;53228;51.380;0.098;2022-12-07T00:52:06;20.33;;;7.50;;
66421;SDS011;53228;51.380;0.098;2022-12-07T00:54:34;20.48;;;7.03;;
66421;SDS011;53228;51.380;0.098;2022-12-07T00:57:02;19.83;;;7.60;;
66421;SDS011;53228;51.380;0.098;2022-12-07T00:59:30;18.77;;;8.05;;
66421;SDS011;53228;51.380;0.098;2022-12-07T01:01:58;15.68;;;7.40;;
66421;SDS011;53228;51.380;0.098;2022-12-07T01:04:27;15.38;;;7.18;;
66421;SDS011;53228;51.380;0.098;2022-12-07T01:06:56;20.13;;;7.97;;
66421;SDS011;53228;51.380;0.098;2022-12-07T01:09:24;21.65;;;7.45;;
66421;SDS011;53228;51.380;0.098;2022-12-07T01:11:53;19.63;;;7.10;;
66421;SDS011;53228;51.380;0.098;2022-12-07T01:14:24;20.00;;;8.00;;
66421;SDS011;53228;51.380;0.098;2022-12-07T01:16:52;17.45;;;7.60;;
66421;SDS011;53228;51.380;0.098;2022-12-07T01:19:23;18.75;;;8.27;;
66421;SDS011;53228;51.380;0.098;2022-12-07T01:21:52;16.40;;;7.93;;
66421;SDS011;53228;51.380;0.098;2022-12-07T01:24:26;15.95;;;7.25;;
66421;SDS011;53228;51.380;0.098;2022-12-07T01:26:57;21.73;;;7.18;;
66421;SDS011;53228;51.380;0.098;2022-12-07T01:29:25;18.65;;;7.20;;
66421;SDS011;53228;51.380;0.098;2022-12-07T01:31:59;19.23;;;6.88;;
66421;SDS011;53228;51.380;0.098;2022-12-07T01:34:29;19.55;;;7.13;;
66421;SDS011;53228;51.380;0.098;2022-12-07T04:46:30;17.15;;;6.00;;
66421;SDS011;53228;51.380;0.098;2022-12-07T04:53:52;10.73;;;3.70;;
66421;SDS011;53228;51.380;0.098;2022-12-07T11:01:45;5.05;;;2.50;;
66421;SDS011;53228;51.380;0.098;2022-12-07T11:04:39;5.90;;;3.03;;
66421;SDS011;53228;51.380;0.098;2022-12-07T11:12:49;26.73;;;9.57;;
66421;SDS011;53228;51.380;0.098;2022-12-07T11:15:23;8.93;;;4.47;;
66421;SDS011;53228;51.380;0.098;2022-12-07T11:17:57;7.80;;;3.50;;
66421;SDS011;53228;51.380;0.098;2022-12-07T11:20:49;7.35;;;3.42;;
66421;SDS011;53228;51.380;0.098;2022-12-07T11:23:48;7.95;;;2.90;;
66421;SDS011;53228;51.380;0.098;2022-12-07T11:29:28;5.63;;;2.92;;
66421;SDS011;53228;51.380;0.098;2022-12-07T11:37:33;7.05;;;2.95;;
66421;SDS011;53228;51.380;0.098;2022-12-07T11:43:11;6.60;;;2.88;;
66421;SDS011;53228;51.380;0.098;2022-12-07T11:45:46;5.28;;;2.70;;
66421;SDS011;53228;51.380;0.098;2022-12-07T11:48:38;5.93;;;3.00;;
66421;SDS011;53228;51.380;0.098;2022-12-07T11:51:27;5.72;;;3.22;;
66421;SDS011;53228;51.380;0.098;2022-12-07T11:54:05;5.50;;;2.90;;
66421;SDS011;53228;51.380;0.098;2022-12-07T11:56:38;8.00;;;2.80;;
66421;SDS011;53228;51.380;0.098;2022-12-07T12:07:15;7.60;;;3.30;;
66421;SDS011;53228;51.380;0.098;2022-12-07T12:16:09;6.78;;;3.50;;
66421;SDS011;53228;51.380;0.098;2022-12-07T12:42:05;4.13;;;2.30;;
66421;SDS011;53228;51.380;0.098;2022-12-07T13:11:40;5.03;;;2.47;;
66421;SDS011;53228;51.380;0.098;2022-12-07T13:17:04;7.65;;;3.10;;
66421;SDS011;53228;51.380;0.098;2022-12-07T13:25:12;6.93;;;2.80;;
66421;SDS011;53228;51.380;0.098;2022-12-07T13:27:54;6.13;;;2.13;;
66421;SDS011;53228;51.380;0.098;2022-12-07T13:30:28;12.55;;;2.97;;
66421;SDS011;53228;51.380;0.098;2022-12-07T13:32:57;7.85;;;2.63;;
66421;SDS011;53228;51.380;0.098;2022-12-07T13:35:44;6.28;;;2.13;;
66421;SDS011;53228;51.380;0.098;2022-12-07T13:38:21;8.80;;;2.65;;
66421;SDS011;53228;51.380;0.098;2022-12-07T13:41:14;5.00;;;1.83;;
66421;SDS011;53228;51.380;0.098;2022-12-07T13:49:18;18.45;;;2.92;;
66421;SDS011;53228;51.380;0.098;2022-12-07T13:51:54;8.95;;;3.55;;
66421;SDS011;53228;51.380;0.098;2022-12-07T13:54:33;6.88;;;3.25;;
66421;SDS011;53228;51.380;0.098;2022-12-07T13:57:12;8.05;;;2.97;;
66421;SDS011;53228;51.380;0.098;2022-12-07T13:59:40;8.27;;;3.03;;
66421;SDS011;53228;51.380;0.098;2022-12-07T14:05:14;5.25;;;3.45;;
66421;SDS011;53228;51.380;0.098;2022-12-07T14:08:00;7.90;;;3.05;;
66421;SDS011;53228;51.380;0.098;2022-12-07T14:10:42;10.95;;;3.58;;
66421;SDS011;53228;51.380;0.098;2022-12-07T14:13:33;3.25;;;2.67;;
66421;SDS011;53228;51.380;0.098;2022-12-07T14:16:03;6.35;;;2.88;;
66421;SDS011;53228;51.380;0.098;2022-12-07T14:18:59;8.23;;;3.53;;
66421;SDS011;53228;51.380;0.098;2022-12-07T14:21:32;7.32;;;4.03;;
66421;SDS011;53228;51.380;0.098;2022-12-07T14:24:17;7.10;;;3.95;;
66421;SDS011;53228;51.380;0.098;2022-12-07T14:26:48;7.85;;;3.75;;
66421;SDS011;53228;51.380;0.098;2022-12-07T14:31:58;9.07;;;3.55;;
66421;SDS011;53228;51.380;0.098;2022-12-07T14:37:46;7.65;;;3.88;;
66421;SDS011;53228;51.380;0.098;2022-12-07T14:40:17;9.88;;;4.00;;
66421;SDS011;53228;51.380;0.098;2022-12-07T14:45:25;12.75;;;4.70;;
66421;SDS011;53228;51.380;0.098;2022-12-07T14:47:53;16.05;;;5.10;;
66421;SDS011;53228;51.380;0.098;2022-12-07T14:50:43;17.08;;;5.00;;
66421;SDS011;53228;51.380;0.098;2022-12-07T14:53:36;12.05;;;5.15;;
66421;SDS011;53228;51.380;0.098;2022-12-07T14:56:09;7.97;;;4.25;;
66421;SDS011;53228;51.380;0.098;2022-12-07T14:58:37;11.80;;;5.03;;
66421;SDS011;53228;51.380;0.098;2022-12-07T15:01:08;9.30;;;4.30;;
66421;SDS011;53228;51.380;0.098;2022-12-07T15:03:36;9.95;;;4.25;;
66421;SDS011;53228;51.380;0.098;2022-12-07T15:06:06;13.68;;;4.38;;
66421;SDS011;53228;51.380;0.098;2022-12-07T15:08:34;5.68;;;3.75;;
66421;SDS011;53228;51.380;0.098;2022-12-07T15:11:02;16.50;;;4.18;;
66421;SDS011;53228;51.380;0.098;2022-12-07T15:13:29;10.25;;;4.60;;
66421;SDS011;53228;51.380;0.098;2022-12-07T15:16:18;11.10;;;4.78;;
66421;SDS011;53228;51.380;0.098;2022-12-07T15:18:48;8.30;;;4.57;;
66421;SDS011;53228;51.380;0.098;2022-12-07T15:21:36;13.25;;;4.47;;
66421;SDS011;53228;51.380;0.098;2022-12-07T15:24:04;11.80;;;4.70;;
66421;SDS011;53228;51.380;0.098;2022-12-07T15:26:32;13.63;;;4.95;;
66421;SDS011;53228;51.380;0.098;2022-12-07T15:29:01;16.08;;;5.18;;
66421;SDS011;53228;51.380;0.098;2022-12-07T15:31:28;10.23;;;4.82;;
66421;SDS011;53228;51.380;0.098;2022-12-07T15:34:16;8.80;;;4.15;;
66421;SDS011;53228;51.380;0.098;2022-12-07T15:36:44;15.57;;;5.20;;
66421;SDS011;53228;51.380;0.098;2022-12-07T15:39:12;5.20;;;3.30;;
66421;SDS011;53228;51.380;0.098;2022-12-07T15:41:41;9.15;;;4.05;;
66421;SDS011;53228;51.380;0.098;2022-12-07T15:44:12;12.40;;;4.43;;
66421;SDS011;53228;51.380;0.098;2022-12-07T15:47:00;10.85;;;4.05;;
66421;SDS011;53228;51.380;0.098;2022-12-07T15:49:28;7.20;;;3.75;;
66421;SDS011;53228;51.380;0.098;2022-12-07T15:51:56;9.70;;;4.82;;
66421;SDS011;53228;51.380;0.098;2022-12-07T15:54:25;7.45;;;3.33;;
66421;SDS011;53228;51.380;0.098;2022-12-07T15:56:54;10.32;;;3.78;;
66421;SDS011;53228;51.380;0.098;2022-12-07T15:59:23;9.90;;;4.38;;
66421;SDS011;53228;51.380;0.098;2022-12-07T16:01:51;5.72;;;3.35;;
66421;SDS011;53228;51.380;0.098;2022-12-07T16:04:20;8.13;;;4.22;;
66421;SDS011;53228;51.380;0.098;2022-12-07T16:06:49;10.02;;;3.95;;
66421;SDS011;53228;51.380;0.098;2022-12-07T16:09:18;12.23;;;4.15;;
66421;SDS011;53228;51.380;0.098;2022-12-07T16:11:47;9.68;;;5.15;;
66421;SDS011;53228;51.380;0.098;2022-12-07T16:14:17;12.15;;;5.55;;
66421;SDS011;53228;51.380;0.098;2022-12-07T16:16:45;11.70;;;6.00;;
66421;SDS011;53228;51.380;0.098;2022-12-07T16:19:13;10.57;;;5.53;;
66421;SDS011;53228;51.380;0.098;2022-12-07T16:21:41;16.48;;;5.82;;
66421;SDS011;53228;51.380;0.098;2022-12-07T16:24:13;8.52;;;4.50;;
66421;SDS011;53228;51.380;0.098;2022-12-07T16:26:43;10.80;;;4.72;;
66421;SDS011;53228;51.380;0.098;2022-12-07T16:29:17;12.93;;;5.35;;
66421;SDS011;53228;51.380;0.098;2022-12-07T16:31:51;13.60;;;5.55;;
66421;SDS011;53228;51.380;0.098;2022-12-07T16:34:25;12.18;;;4.60;;
66421;SDS011;53228;51.380;0.098;2022-12-07T16:36:55;12.27;;;4.82;;
66421;SDS011;53228;51.380;0.098;2022-12-07T16:39:32;11.32;;;4.85;;
66421;SDS011;53228;51.380;0.098;2022-12-07T16:42:02;13.63;;;5.93;;
66421;SDS011;53228;51.380;0.098;2022-12-07T16:44:52;14.20;;;5.57;;
66421;SDS011;53228;51.380;0.098;2022-12-07T16:52:58;15.85;;;7.45;;
66421;SDS011;53228;51.380;0.098;2022-12-07T17:08:58;30.38;;;10.05;;
66421;SDS011;53228;51.380;0.098;2022-12-07T17:27:32;17.92;;;5.57;;
66421;SDS011;53228;51.380;0.098;2022-12-07T18:53:58;49.95;;;21.73;;
66421;SDS011;53228;51.380;0.098;2022-12-07T19:01:37;25.58;;;9.00;;
66421;SDS011;53228;51.380;0.098;2022-12-07T19:31:20;19.55;;;8.30;;
66421;SDS011;53228;51.380;0.098;2022-12-07T19:52:22;26.48;;;13.07;;
66421;SDS011;53228;51.380;0.098;2022-12-07T19:59:14;21.30;;;11.73;;
66421;SDS011;53228;51.380;0.098;2022-12-07T20:33:20;20.42;;;9.65;;
66421;SDS011;53228;51.380;0.098;2022-12-07T20:37:00;20.67;;;8.32;;
